Swans Island, Maine
Current Conditions -  °F | °C
As of 5:55 PM on Wednesday 22 Oct 2014 (Local Time) from KBHB Reporting Station
Overcast Overcast  
Wind Chill: 40°   Ceiling: 1000
Heat Index: 46°   Visibility: 4mi
Dew Point: 46°   Wind: 16mph
Humidity: 100%   Direction: 30°NNE
Pressure: 30.13"   Gusts: 22mph
Location:  44.14°N, 68.45°W
Report Text: KBHB 222155Z AUTO 03014G19KT 4SM OVC010 08/08 A3013 RMK AO1 P0007
Loading
Personal Weather Stations






























Interactive Weather Map
Tropical Storm Tracking
New forecast layout! Learn more

10-Day Weather Forecast

Advertisements
Track Severe Weather on mobile